Aeroporto :
LOGIN :

Iscrizione | Disclaimer

   EN    FR    IT 

 










Sommario :    VFR   VFR Marginale   IFR   IFR Intensivo   IFR Molto Intensivo
Visibilità : 
Base nubi : 
>= 8 km
>= 3000ft
5 / 8 km
1000 / 3000 ft
1500m / 5 km
500 / 1000 ft
800 / 1500m
200 / 500 ft
< 800m
< 200 ft
Simboli :   Temporali  Nebbia  Neve Forte  Precipitazioni Forti  Vento > 20 kt
SIGMETs :   Varie  Temporali  Ghiacco  Turbolenza  Onda orograficha  Ceneri Vulcaniche






- Altitudine del aeroporto : 245 ft


ETHS - Fassberg

ULTIMO METAR :
  • 091520Z 34012KT 9999 BKN050 16/03 Q1024 BLU

METARs OBSOLETI :
  • 091500Z 33011KT 9999 BKN050 17/03 Q1024 BLU FCST CANCEL
  • 091420Z 02009KT 9999 BKN050 17/04 Q1024 BLU BLU
  • 091320Z 36011KT 9999 SCT050 17/03 Q1024 BLU+BLU+

TAF TAF ETHS
Valido dal 09 a 14 ore il 09 a 23 ore UTC


091320Z 0914/0923 34008KT 9999 NSW SCT050 SCT300



MetMap, La meteo Aeronautica in un colpo d'occhio ! - Copyright ORBIFLY Dicembre 2007 - Disclaimer

ORBIFLY MET'MAP TEAM :

Programmazione e sviluppo : Alexandra Zaïnal
Concezione : Baudouin d'Aumeries
Aiuto per la programmazione : Marc-Olivier Méhu
Supporto tecnico e logistico : Manuel Goepfert
Aiuto per la traduzione : Arnaldo La Scala

Contatto : metmap@orbifly.com




FONTI E CREDITI :

   NOAA